Погода Арарипина 2 недели

Сеара, Бразилия

25 июля-06 августа
  • 25июля
    Сегодня
    +18°
    +28°
    Практически безоблачно
    ВремяПогодаТемператураВлажностьДавлениеВетер, м/сВероятность осадков
    00:00Ясно и безоблачно+19°C82 %710 мм5.2 м/с5 %
    03:00Ясно и безоблачно+18°C85 %709 мм5.7 м/с5 %
    06:00Пасмурно, сплошная облачность+17°C89 %709 мм5.8 м/с7 %
    09:00Облачно с прояснениями+22°C58 %711 мм7.8 м/с29 %
    12:00Небольшая облачность+26°C42 %711 мм6.7 м/с8 %
    15:00Практически безоблачно+27°C38 %709 мм5.8 м/с5 %
    18:00Ясно и безоблачно+24°C47 %709 мм4.7 м/с5 %
    21:00Ясно и безоблачно+22°C63 %709 мм4.8 м/с5 %
  • 26июля
    Пятница
    +18°
    +28°
    Облачно с прояснениями
    ВремяПогодаТемператураВлажностьДавлениеВетер, м/сВероятность осадков
    00:00Ясно и безоблачно+20°C82 %709 мм5.9 м/с5 %
    03:00Практически безоблачно+19°C89 %708 мм6.0 м/с5 %
    06:00Практически безоблачно+18°C87 %709 мм5.8 м/с5 %
    09:00Практически безоблачно+22°C56 %710 мм6.5 м/с3 %
    12:00Практически безоблачно+26°C37 %709 мм6.3 м/с5 %
    15:00Облачно с прояснениями+28°C35 %707 мм5.6 м/с5 %
    18:00Небольшая облачность+25°C45 %708 мм4.0 м/с5 %
    21:00Небольшая облачность+22°C57 %709 мм6.2 м/с5 %
  • 27июля
    Суббота
    +19°
    +29°
    Облачно с прояснениями
    ВремяПогодаТемператураВлажностьДавлениеВетер, м/сВероятность осадков
    00:00Практически безоблачно+20°C63 %709 мм6.6 м/с4 %
    03:00Небольшая облачность+19°C77 %708 мм6.2 м/с8 %
    06:00Ясно и безоблачно+18°C81 %709 мм6.3 м/с4 %
    09:00Небольшая облачность+22°C55 %710 мм7.0 м/с5 %
    12:00Облачно с прояснениями+27°C38 %710 мм5.7 м/с5 %
    15:00Облачно с прояснениями+28°C33 %708 мм5.0 м/с5 %
    18:00Облачно с прояснениями+26°C40 %709 мм3.5 м/с5 %
    21:00Практически безоблачно+23°C56 %710 мм6.2 м/с5 %
  • 28июля
    Воскресенье
    +18°
    +29°
    Небольшая облачность
    ВремяПогодаТемператураВлажностьДавлениеВетер, м/сВероятность осадков
    00:00Ясно и безоблачно+21°C75 %710 мм6.3 м/с5 %
    03:00Ясно и безоблачно+20°C86 %709 мм6.5 м/с8 %
    06:00Практически безоблачно+19°C88 %709 мм6.2 м/с5 %
    09:00Ясно и безоблачно+23°C59 %711 мм5.8 м/с4 %
    12:00Облачно с прояснениями+28°C39 %710 мм4.5 м/с5 %
    15:00Небольшая облачность+28°C37 %709 мм4.7 м/с4 %
    18:00Ясно и безоблачно+26°C40 %709 мм3.7 м/с5 %
    21:00Ясно и безоблачно+23°C54 %710 мм6.2 м/с5 %
  • 29июля
    Понедельник
    +19°
    +29°
    Небольшая облачность
    ВремяПогодаТемператураВлажностьДавлениеВетер, м/сВероятность осадков
    00:00Ясно и безоблачно+21°C63 %709 мм6.6 м/с10 %
    03:00Ясно и безоблачно+20°C72 %709 мм6.1 м/с25 %
    06:00Ясно и безоблачно+19°C86 %710 мм5.8 м/с19 %
    09:00Ясно и безоблачно+22°C61 %711 мм5.6 м/с14 %
    12:00Ясно и безоблачно+26°C39 %710 мм4.6 м/с9 %
    15:00Небольшая облачность+28°C34 %709 мм4.0 м/с4 %
    18:00Ясно и безоблачно+25°C42 %709 мм3.9 м/с5 %
    21:00Ясно и безоблачно+23°C50 %709 мм5.3 м/с5 %
Мы используем cookies
Соглашаюсь